You are not logged in, Click here to log in
福州長樂國際機場 / ZSFZ 中華人民共和國福建省福州市
ICAO: ZSFZ Country: 中華人民共和國福建省福州市
Latitude: 25.9306 Longitude: 119.67
Total Arrivals: 4 Total Departures: 3
Latest Arrival: CF210 (RCTP-ZSFZ)Jason. Li Latest Departure: CI883C (ZSFZ-RCSS)Jason. Li
Scenery:
METAR : ZSFZ 261100Z 04008MPS 5000 BR BKN006 OVC011 14/12 Q1022 NOSIG

福州長樂國際機場

You are accessing this site from IP address 34.239.151.158. Virtual Airline. CMS by phpVMS.Website designed by Zumeweb and edited by Theo Bearman.
There is 0 User(s) Online: | and 4 Guest(s) Online.
All information on this site is for fight simulation purposes only. This site is for flight logging for pilots of Virtual Airline&模擬飛行論壇 FlySim only.